Latest Weather Observations for Mount Hotham

IDV60801

Issued at 8:03 am EDT Wednesday 25 January 2017 (issued every 30 minutes, with the page automatically refreshed every 10 minutes)

About weather observations | Map of weather stations | Latest weather observations for VIC | Other Formats
Station Details ID: 083085 Name: MOUNT HOTHAM Lat: -36.98 Lon: 147.13 Height: 1849.0 m
Data from the previous 72 hours. | See also: Recent months at Mount Hotham
Date/Time
EDT
Temp
°C
App
Temp
°C
Dew
Point
°C
Rel
Hum
%
Delta-T
°C
Wind Press
QNH
hPa
Press
MSL
hPa
Rain since
9am
mm
Dir  Spd
km/h
Gust
km/h
Spd
kts
Gust
kts
25/08:00am 10.5 - - - - NNE 37 44 20 24 - - -
25/07:30am 9.9 - - - - NNE 32 35 17 19 - - 0.2
25/07:00am 9.8 - - - - NNE 28 32 15 17 - - 0.2
25/06:30am 9.8 - - - - NNE 24 28 13 15 - - 0.2
25/06:00am 10.3 - - - - NNE 22 24 12 13 - - 0.2
25/05:30am 10.3 - - - - NNE 19 24 10 13 - - 0.2
25/05:00am 10.4 - - - - NNE 19 20 10 11 - - 0.2
25/04:30am 10.7 - - - - NNE 20 20 11 11 - - 0.2
25/04:00am 11.0 - - - - NNE 19 20 10 11 - - 0.2
25/03:30am 11.6 - - - - NNE 17 19 9 10 - - 0.2
25/03:00am 11.6 - - - - NNE 17 22 9 12 - - 0.2
25/02:30am 10.9 - - - - N 17 20 9 11 - - 0.2
25/02:00am 11.2 - - - - NNE 15 17 8 9 - - 0.2
25/01:30am 11.1 - - - - NNE 15 17 8 9 - - 0.2
25/01:00am 10.9 - - - - NNE 15 17 8 9 - - 0.2
25/12:30am 11.0 - - - - NNE 15 19 8 10 - - 0.2
25/12:00am 7.0 - - - - ENE 11 13 6 7 - - 0.2
 
Date/Time
EDT
Temp
°C
App
Temp
°C
Dew
Point
°C
Rel
Hum
%
Delta-T
°C
Wind Press
QNH
hPa
Press
MSL
hPa
Rain since
9am
mm
Dir  Spd
km/h
Gust
km/h
Spd
kts
Gust
kts
24/11:45pm 10.1 - - - - ENE 9 13 5 7 - - 0.2
24/11:30pm 5.1 - - - - ENE 11 20 6 11 - - 0.2
24/11:00pm 5.1 - - - - E 17 22 9 12 - - 0.2
24/10:30pm 5.7 - - - - ESE 19 24 10 13 - - 0.2
24/10:00pm 6.5 - - - - E 19 28 10 15 - - 0.2
24/09:30pm 7.4 - - - - E 15 19 8 10 - - 0.2
24/09:00pm 8.1 - - - - ESE 13 19 7 10 - - 0.2
24/08:30pm 8.9 - - - - ESE 15 20 8 11 - - 0.2
24/08:00pm 10.0 - - - - SE 17 22 9 12 - - 0.2
24/07:30pm 11.6 - - - - SE 17 22 9 12 - - 0.2
24/07:00pm 12.1 - - - - S 19 24 10 13 - - 0.2
24/06:30pm 13.4 - - - - S 20 24 11 13 - - 0.2
24/06:00pm 15.8 - - - - WSW 11 20 6 11 - - 0.2
24/05:30pm 16.0 - - - - NNW 11 19 6 10 - - 0.2
24/05:00pm 16.1 - - - - NNW 13 28 7 15 - - 0.2
24/04:30pm 16.5 - - - - NW 19 28 10 15 - - 0.2
24/04:00pm 17.0 - - - - NNW 24 32 13 17 - - 0.2
24/03:30pm 16.8 - - - - NNW 26 39 14 21 - - 0.2
24/03:15pm 17.2 - - - - NNW 28 46 15 25 - - 0.2
24/03:00pm 16.2 - - - - NNW 33 46 18 25 - - 0.2
24/02:30pm 16.6 - - - - NNW 33 52 18 28 - - 0.2
24/02:08pm 16.7 - - - - NNW 32 54 17 29 - - 0.2
24/02:00pm 16.1 - - - - NNW 32 46 17 25 - - 0.2
24/01:45pm 15.6 - - - - NNW 30 50 16 27 - - 0.2
24/01:30pm 15.5 - - - - NNW 37 50 20 27 - - 0.2
24/01:00pm 15.7 - - - - NNW 33 52 18 28 - - 0.2
24/12:58pm 15.4 - - - - N 33 52 18 28 - - 0.2
24/12:53pm 15.0 - - - - NNW 37 52 20 28 - - 0.2
24/12:38pm 15.6 - - - - NNW 33 54 18 29 - - 0.2
24/12:30pm 15.2 - - - - NNW 37 56 20 30 - - 0.2
24/12:27pm 15.0 - - - - NNW 35 56 19 30 - - 0.2
24/12:00pm 14.8 - - - - NNW 33 48 18 26 - - 0.2
24/11:30am 13.3 - - - - NNW 35 48 19 26 - - 0.2
24/11:00am 12.8 - - - - NNW 37 54 20 29 - - 0.2
24/10:30am 12.9 - - - - NNW 35 54 19 29 - - 0.2
24/10:00am 12.6 - - - - NW 35 57 19 31 - - 0.2
24/09:30am 13.0 - - - - NNW 35 54 19 29 - - 0.2
24/09:23am 13.0 - - - - N 37 57 20 31 - - 0.2
24/09:19am 12.9 - - - - NNW 41 57 22 31 - - 0.2
24/09:15am 13.0 - - - - N 39 57 21 31 - - 0.2
24/09:00am 13.2 - - - - NNW 37 57 20 31 - - 0.8
24/08:40am 13.2 - - - - N 35 54 19 29 - - 0.8
24/08:39am 13.2 - - - - N 37 54 20 29 - - 0.8
24/08:30am 13.2 - - - - N 41 54 22 29 - - 0.8
24/08:00am 13.0 - - - - N 39 63 21 34 - - 0.8
24/07:53am 13.0 - - - - N 41 61 22 33 - - 0.8
24/07:52am 12.9 - - - - N 41 57 22 31 - - 0.8
24/07:42am 13.1 - - - - N 43 59 23 32 - - 0.8
24/07:38am 13.2 - - - - N 41 59 22 32 - - 0.8
24/07:30am 13.4 - - - - NNE 44 59 24 32 - - 0.8
24/07:08am 13.6 - - - - N 41 59 22 32 - - 0.6
24/07:00am 13.4 - - - - N 41 56 22 30 - - 0.6
24/06:30am 13.8 - - - - N 48 78 26 42 - - 0.6
24/06:00am 13.5 - - - - NNE 48 69 26 37 - - 0.6
24/05:31am 12.9 - - - - NNE 50 69 27 37 - - 0.6
24/05:30am 12.9 - - - - NNE 52 69 28 37 - - 0.6
24/05:00am 13.1 - - - - NNE 52 76 28 41 - - 0.6
24/04:43am 13.1 - - - - NNE 46 70 25 38 - - 0.6
24/04:42am 13.1 - - - - NNE 46 67 25 36 - - 0.6
24/04:39am 12.9 - - - - NNE 50 69 27 37 - - 0.6
24/04:30am 13.2 - - - - N 57 76 31 41 - - 0.6
24/04:29am 13.3 - - - - N 59 76 32 41 - - 0.6
24/04:26am 13.2 - - - - N 57 76 31 41 - - 0.6
24/04:00am 13.3 - - - - NNE 50 70 27 38 - - 0.4
24/03:30am 14.3 - - - - N 48 74 26 40 - - 0.4
24/03:07am 14.7 - - - - NNE 44 69 24 37 - - 0.2
24/03:00am 14.8 - - - - NNE 43 57 23 31 - - 0.2
24/02:52am 15.1 - - - - N 41 59 22 32 - - 0.2
24/02:30am 16.1 - - - - N 46 70 25 38 - - 0.0
24/02:19am 16.3 - - - - NNW 43 67 23 36 - - 0.0
24/02:08am 16.1 - - - - N 39 59 21 32 - - 0.0
24/02:03am 16.7 - - - - N 37 59 20 32 - - 0.0
24/02:00am 16.7 - - - - N 37 48 20 26 - - 0.0
24/01:30am 17.0 - - - - NNE 39 61 21 33 - - 0.0
24/01:02am 17.3 - - - - NE 44 63 24 34 - - 0.0
24/01:00am 17.3 - - - - NE 46 63 25 34 - - 0.0
24/12:36am 17.6 - - - - NNE 43 63 23 34 - - 0.0
24/12:31am 17.7 - - - - NNE 43 63 23 34 - - 0.0
24/12:30am 17.7 - - - - N 43 63 23 34 - - 0.0
24/12:02am 17.7 - - - - N 48 67 26 36 - - 0.0
24/12:00am 17.8 - - - - N 46 59 25 32 - - 0.0
 
Date/Time
EDT
Temp
°C
App
Temp
°C
Dew
Point
°C
Rel
Hum
%
Delta-T
°C
Wind Press
QNH
hPa
Press
MSL
hPa
Rain since
9am
mm
Dir  Spd
km/h
Gust
km/h
Spd
kts
Gust
kts
23/11:34pm 18.5 - - - - N 46 65 25 35 - - 0.0
23/11:30pm 18.6 - - - - N 48 65 26 35 - - 0.0
23/11:08pm 19.1 - - - - N 41 59 22 32 - - 0.0
23/11:00pm 19.4 - - - - N 48 63 26 34 - - 0.0
23/10:38pm 20.2 - - - - N 43 61 23 33 - - 0.0
23/10:30pm 20.3 - - - - N 44 59 24 32 - - 0.0
23/10:01pm 20.4 - - - - N 43 63 23 34 - - 0.0
23/10:00pm 20.2 - - - - N 41 57 22 31 - - 0.0
23/09:33pm 20.2 - - - - N 39 57 21 31 - - 0.0
23/09:30pm 20.2 - - - - N 41 57 22 31 - - 0.0
23/09:00pm 20.1 - - - - N 39 57 21 31 - - 0.0
23/08:53pm 20.3 - - - - N 37 57 20 31 - - 0.0
23/08:30pm 20.0 - - - - N 35 46 19 25 - - 0.0
23/08:15pm 20.2 - - - - N 37 56 20 30 - - 0.0
23/08:00pm 20.2 - - - - N 39 54 21 29 - - 0.0
23/07:40pm 20.1 - - - - N 39 59 21 32 - - 0.0
23/07:30pm 20.2 - - - - N 43 56 23 30 - - 0.0
23/07:00pm 20.0 - - - - N 39 56 21 30 - - 0.0
23/06:30pm 20.5 - - - - N 41 65 22 35 - - 0.0
23/06:17pm 20.4 - - - - NNE 37 56 20 30 - - 0.0
23/06:12pm 20.1 - - - - NNE 37 48 20 26 - - 0.0
23/06:00pm 20.2 - - - - NE 35 50 19 27 - - 0.0
23/05:56pm 20.3 - - - - NNE 37 48 20 26 - - 0.0
23/05:50pm 20.3 - - - - NE 35 48 19 26 - - 0.0
23/05:33pm 20.2 - - - - NNE 35 48 19 26 - - 0.0
23/05:30pm 20.1 - - - - NNE 37 48 20 26 - - 0.0
23/05:00pm 20.2 - - - - NNE 37 56 20 30 - - 0.0
23/04:58pm 20.3 - - - - NNE 37 56 20 30 - - 0.0
23/04:30pm 19.7 - - - - N 39 52 21 28 - - 0.0
23/04:12pm 20.2 - - - - N 35 54 19 29 - - 0.0
23/04:00pm 19.5 - - - - N 35 48 19 26 - - 0.0
23/03:30pm 19.8 - - - - N 37 56 20 30 - - 0.0
23/03:00pm 19.0 - - - - N 39 54 21 29 - - 0.0
23/02:34pm 19.2 - - - - N 39 57 21 31 - - 0.0
23/02:30pm 18.9 - - - - N 39 54 21 29 - - 0.0
23/02:00pm 19.0 - - - - N 43 63 23 34 - - 0.0
23/01:57pm 19.3 - - - - N 41 63 22 34 - - 0.0
23/01:30pm 19.1 - - - - N 44 61 24 33 - - 0.0
23/01:17pm 18.1 - - - - N 39 57 21 31 - - 0.0
23/01:00pm 18.1 - - - - N 39 56 21 30 - - 0.0
23/12:48pm 18.4 - - - - N 33 52 18 28 - - 0.0
23/12:30pm 18.6 - - - - N 39 50 21 27 - - 0.0
23/12:00pm 17.8 - - - - N 33 46 18 25 - - 0.0
23/11:30am 16.1 - - - - N 37 52 20 28 - - 0.0
23/11:00am 15.5 - - - - N 37 56 20 30 - - 0.0
23/10:30am 15.7 - - - - N 41 52 22 28 - - 0.0
23/10:02am 15.7 - - - - N 44 63 24 34 - - 0.0
23/10:00am 15.6 - - - - N 46 63 25 34 - - 0.0
23/09:30am 15.4 - - - - N 44 61 24 33 - - 0.0
23/09:00am 15.3 - - - - N 43 63 23 34 - - 0.0
23/08:57am 15.3 - - - - N 43 63 23 34 - - 0.0
23/08:30am 14.9 - - - - N 43 52 23 28 - - 0.0
23/08:00am 14.8 - - - - N 44 59 24 32 - - 0.0
23/07:32am 15.0 - - - - N 46 65 25 35 - - 0.0
23/07:30am 14.9 - - - - N 48 65 26 35 - - 0.0
23/07:18am 15.2 - - - - N 50 70 27 38 - - 0.0
23/07:00am 15.1 - - - - N 46 59 25 32 - - 0.0
23/06:30am 15.3 - - - - N 48 63 26 34 - - 0.0
23/06:00am 15.2 - - - - N 44 65 24 35 - - 0.0
23/05:53am 15.2 - - - - N 46 65 25 35 - - 0.0
23/05:30am 15.2 - - - - N 46 61 25 33 - - 0.0
23/05:00am 15.1 - - - - N 46 59 25 32 - - 0.0
23/04:30am 15.0 - - - - N 48 59 26 32 - - 0.0
23/04:00am 14.7 - - - - N 46 57 25 31 - - 0.0
23/03:42am 14.6 - - - - N 37 56 20 30 - - 0.0
23/03:30am 14.7 - - - - N 39 56 21 30 - - 0.0
23/03:26am 14.7 - - - - N 37 56 20 30 - - 0.0
23/03:00am 14.7 - - - - N 39 54 21 29 - - 0.0
23/02:30am 14.8 - - - - N 39 50 21 27 - - 0.0
23/02:00am 14.5 - - - - N 35 46 19 25 - - 0.0
23/01:30am 14.4 - - - - N 33 41 18 22 - - 0.0
23/01:00am 14.3 - - - - N 33 43 18 23 - - 0.0
23/12:30am 14.4 - - - - N 33 44 18 24 - - 0.0
23/12:00am 13.6 - - - - N 33 41 18 22 - - 0.0
 
Date/Time
EDT
Temp
°C
App
Temp
°C
Dew
Point
°C
Rel
Hum
%
Delta-T
°C
Wind Press
QNH
hPa
Press
MSL
hPa
Rain since
9am
mm
Dir  Spd
km/h
Gust
km/h
Spd
kts
Gust
kts
22/11:30pm 13.7 - - - - N 32 37 17 20 - - 0.0
22/11:00pm 13.5 - - - - N 28 33 15 18 - - 0.0
22/10:30pm 13.4 - - - - N 28 33 15 18 - - 0.0
22/10:00pm 13.4 - - - - NNE 28 33 15 18 - - 0.0
22/09:30pm 13.4 - - - - NNE 24 30 13 16 - - 0.0
22/09:00pm 13.5 - - - - NNE 19 20 10 11 - - 0.0
22/08:30pm 13.4 - - - - N 19 20 10 11 - - 0.0
22/08:00pm 13.9 - - - - N 20 22 11 12 - - 0.0
22/07:30pm 14.6 - - - - NNE 17 20 9 11 - - 0.0
22/07:00pm 15.3 - - - - N 17 22 9 12 - - 0.0
22/06:30pm 15.5 - - - - N 17 22 9 12 - - 0.0
22/06:00pm 16.8 - - - - NNW 15 20 8 11 - - 0.0
22/05:30pm 17.2 - - - - NW 15 24 8 13 - - 0.0
22/05:00pm 18.1 - - - - NNW 13 17 7 9 - - 0.0
22/04:30pm 17.8 - - - - NNW 13 19 7 10 - - 0.0
22/04:00pm 17.3 - - - - NW 13 20 7 11 - - 0.0
22/03:30pm 16.8 - - - - NNW 15 20 8 11 - - 0.0
22/03:00pm 16.9 - - - - NW 15 20 8 11 - - 0.0
22/02:30pm 16.5 - - - - NNW 15 20 8 11 - - 0.0
22/02:00pm 16.1 - - - - NW 13 19 7 10 - - 0.0
22/01:30pm 16.4 - - - - NNW 11 17 6 9 - - 0.0
22/01:00pm 15.5 - - - - NW 11 19 6 10 - - 0.0
22/12:30pm 15.9 - - - - W 9 15 5 8 - - 0.0
22/12:00pm 16.1 - - - - SSW 7 11 4 6 - - 0.0
22/11:30am 15.1 - - - - SSW 11 20 6 11 - - 0.0
22/11:00am 14.9 - - - - SE 6 13 3 7 - - 0.0
22/10:30am 13.7 - - - - SW 9 11 5 6 - - 0.0
22/10:00am 12.4 - - - - W 11 13 6 7 - - 0.0
22/09:30am 11.5 - - - - NNW 13 17 7 9 - - 0.0
22/09:00am 11.6 - - - - N 20 24 11 13 - - 0.0
22/08:30am 11.2 - - - - NNW 22 26 12 14 - - 0.0

Other Formats:

Comma delimited format used in spreadsheet applications
http://www.bom.gov.au/fwo/IDV60801/IDV60801.94906.axf

JavaScript Object Notation format (JSON) in row-major order
http://www.bom.gov.au/fwo/IDV60801/IDV60801.94906.json